createdAt,value
2018-07-22T00:02:09.403Z,69.14
2018-07-22T00:04:36.548Z,69.37
2018-07-22T00:07:03.720Z,67.05
2018-07-22T00:09:30.880Z,65.25
2018-07-22T00:11:58.027Z,65.44
2018-07-22T00:14:25.154Z,68.09
2018-07-22T00:16:52.331Z,66.83
2018-07-22T00:19:19.468Z,69.63
2018-07-22T00:21:46.621Z,67.87
2018-07-22T00:24:13.811Z,68.28
2018-07-22T00:26:40.948Z,69.99
2018-07-22T00:29:08.129Z,69.08
2018-07-22T00:31:35.455Z,69.61
2018-07-22T00:34:02.583Z,70.16
2018-07-22T00:36:29.693Z,70.17
2018-07-22T00:38:56.848Z,69.19
2018-07-22T00:41:23.960Z,72.34
2018-07-22T00:43:51.070Z,73.86
2018-07-22T00:46:18.989Z,74.48
2018-07-22T00:48:46.138Z,74.55
2018-07-22T00:51:13.284Z,72.90
2018-07-22T00:53:40.455Z,74.10
2018-07-22T00:56:07.587Z,72.96
2018-07-22T00:58:34.755Z,75.67
2018-07-22T01:01:02.056Z,76.62
2018-07-22T01:03:29.176Z,76.27
2018-07-22T01:05:56.308Z,77.25
2018-07-22T01:08:23.474Z,76.05
2018-07-22T01:10:50.600Z,77.14
2018-07-22T01:13:17.757Z,76.83
2018-07-22T01:15:44.953Z,76.65
2018-07-22T01:18:12.097Z,76.87
2018-07-22T01:20:39.270Z,76.62
2018-07-22T01:23:06.617Z,77.62
2018-07-22T01:25:33.749Z,77.85
2018-07-22T01:28:00.896Z,76.09
2018-07-22T01:30:28.052Z,72.45
2018-07-22T01:32:55.223Z,75.44
2018-07-22T01:35:22.309Z,75.34
2018-07-22T01:37:49.556Z,75.33
2018-07-22T01:40:16.700Z,77.38
2018-07-22T01:42:43.964Z,77.73
2018-07-22T01:45:11.145Z,78.82
2018-07-22T01:47:38.240Z,79.96
2018-07-22T01:50:05.463Z,80.07
2018-07-22T01:52:32.637Z,77.78
2018-07-22T01:54:59.748Z,79.60
2018-07-22T01:57:26.920Z,79.24
2018-07-22T01:59:54.085Z,78.98
2018-07-22T02:02:21.205Z,81.02
2018-07-22T02:04:48.340Z,82.44
2018-07-22T02:07:15.608Z,82.04
2018-07-22T02:09:42.710Z,82.48
2018-07-22T02:12:09.847Z,82.57
2018-07-22T02:14:37.004Z,81.77
2018-07-22T02:17:04.146Z,80.48
2018-07-22T02:19:31.271Z,80.80
2018-07-22T02:21:58.417Z,80.94
2018-07-22T02:24:25.546Z,81.76
2018-07-22T02:26:52.678Z,83.28
2018-07-22T02:29:19.928Z,83.67
2018-07-22T02:31:47.057Z,83.83
2018-07-22T02:34:14.220Z,84.62
2018-07-22T02:36:41.364Z,84.83
2018-07-22T02:39:10.407Z,84.77
2018-07-22T02:41:37.565Z,85.71
2018-07-22T02:44:04.808Z,86.07
2018-07-22T02:46:32.125Z,85.96
2018-07-22T02:48:59.280Z,83.69
2018-07-22T02:51:26.505Z,83.43
2018-07-22T02:53:53.639Z,83.99
2018-07-22T02:56:20.740Z,84.13
2018-07-22T02:58:47.916Z,84.01
2018-07-22T03:01:15.159Z,84.87
2018-07-22T03:03:42.279Z,85.63
2018-07-22T03:06:09.411Z,86.15
2018-07-22T03:08:36.532Z,86.90
2018-07-22T03:11:03.713Z,87.85
2018-07-22T03:13:31.035Z,88.61
2018-07-22T03:15:58.191Z,87.95
2018-07-22T03:18:25.344Z,86.27
2018-07-22T03:20:52.504Z,84.11
2018-07-22T03:23:19.664Z,84.63
2018-07-22T03:25:46.808Z,86.55
2018-07-22T03:28:14.001Z,87.42
2018-07-22T03:30:41.121Z,86.56
2018-07-22T03:33:08.233Z,86.32
2018-07-22T03:35:36.347Z,86.73
2018-07-22T03:38:03.446Z,86.17
2018-07-22T03:40:30.555Z,86.33
2018-07-22T03:42:57.705Z,87.29
2018-07-22T03:45:24.825Z,88.07
2018-07-22T03:47:51.934Z,88.17
2018-07-22T03:50:19.156Z,88.25
2018-07-22T03:52:46.288Z,86.37
2018-07-22T03:55:13.431Z,85.99
2018-07-22T03:57:40.600Z,86.73
2018-07-22T04:00:07.760Z,86.17
2018-07-22T04:02:34.902Z,84.97
2018-07-22T04:05:02.067Z,85.27
2018-07-22T04:07:29.229Z,88.34
2018-07-22T04:09:56.369Z,88.44
2018-07-22T04:12:23.554Z,87.91
2018-07-22T04:14:50.675Z,87.15
2018-07-22T04:17:17.815Z,87.66
2018-07-22T04:19:45.080Z,87.88
2018-07-22T04:22:12.216Z,87.71
2018-07-22T04:24:39.324Z,88.82
2018-07-22T04:27:06.520Z,89.12
2018-07-22T04:29:33.640Z,89.02
2018-07-22T04:32:00.752Z,89.48
2018-07-22T04:34:28.021Z,88.97
2018-07-22T04:36:55.201Z,88.36
2018-07-22T04:39:22.315Z,87.09
2018-07-22T04:41:49.495Z,87.61
2018-07-22T04:44:16.608Z,88.68
2018-07-22T04:46:43.738Z,86.45
2018-07-22T04:49:10.907Z,86.28
2018-07-22T04:51:38.016Z,86.62
2018-07-22T04:54:05.145Z,88.55
2018-07-22T04:56:32.317Z,87.44
2018-07-22T04:58:59.449Z,86.40
2018-07-22T05:01:26.560Z,86.22
2018-07-22T05:03:53.903Z,85.45
2018-07-22T05:06:21.033Z,81.71
2018-07-22T05:08:48.143Z,80.86
2018-07-22T05:11:15.353Z,81.00
2018-07-22T05:13:42.471Z,82.62
2018-07-22T05:16:09.630Z,82.70
2018-07-22T05:18:36.788Z,82.49
2018-07-22T05:21:03.932Z,80.45
2018-07-22T05:23:31.038Z,77.31
2018-07-22T05:25:58.195Z,76.64
2018-07-22T05:28:25.336Z,75.28
2018-07-22T05:30:52.472Z,74.16
2018-07-22T05:33:19.645Z,75.31
2018-07-22T05:35:46.865Z,74.01
2018-07-22T05:38:14.070Z,72.68
2018-07-22T05:40:41.367Z,72.82
2018-07-22T05:43:08.535Z,70.22
2018-07-22T05:45:36.484Z,69.54
2018-07-22T05:48:03.688Z,70.09
2018-07-22T05:50:30.821Z,72.36
2018-07-22T05:52:57.996Z,70.09
2018-07-22T05:55:25.168Z,69.88
2018-07-22T05:57:52.309Z,69.42
2018-07-22T06:00:19.440Z,62.92
2018-07-22T06:02:46.713Z,66.93
2018-07-22T06:05:13.848Z,68.68
2018-07-22T06:07:41.001Z,72.00
2018-07-22T06:10:08.214Z,67.22
2018-07-22T06:12:35.348Z,67.71
2018-07-22T06:15:02.517Z,65.27
2018-07-22T06:17:29.781Z,67.83
2018-07-22T06:19:56.903Z,67.62
2018-07-22T06:22:24.037Z,64.80
2018-07-22T06:24:51.207Z,64.25
2018-07-22T06:27:18.352Z,63.46
2018-07-22T06:29:45.483Z,66.59
2018-07-22T06:32:12.753Z,62.55
2018-07-22T06:34:39.890Z,64.62
2018-07-22T06:37:07.169Z,64.62
2018-07-22T06:39:34.506Z,61.10
2018-07-22T06:42:01.669Z,62.24
2018-07-22T06:44:28.812Z,59.80
2018-07-22T06:46:55.985Z,57.63
2018-07-22T06:49:23.108Z,57.05
2018-07-22T06:51:50.268Z,57.38
2018-07-22T06:54:17.542Z,55.64
2018-07-22T06:56:44.669Z,58.21
2018-07-22T06:59:11.863Z,61.60
2018-07-22T07:01:39.059Z,57.67
2018-07-22T07:04:06.212Z,58.32
2018-07-22T07:06:33.347Z,59.59
2018-07-22T07:09:00.533Z,61.44
2018-07-22T07:11:27.705Z,58.10
2018-07-22T07:13:54.860Z,58.27
2018-07-22T07:16:22.059Z,58.73
2018-07-22T07:18:49.195Z,54.82
2018-07-22T07:21:16.340Z,55.65
2018-07-22T07:23:43.528Z,54.18
2018-07-22T07:26:10.645Z,53.09
2018-07-22T07:28:37.771Z,52.80
2018-07-22T07:31:04.941Z,51.76
2018-07-22T07:33:32.125Z,51.84
2018-07-22T07:35:59.255Z,51.35
2018-07-22T07:38:26.522Z,49.19
2018-07-22T07:40:53.708Z,52.12
2018-07-22T07:43:20.832Z,51.47
2018-07-22T07:45:48.047Z,48.44
2018-07-22T07:48:15.201Z,47.53
2018-07-22T07:50:42.327Z,45.01
2018-07-22T07:53:09.463Z,45.19
2018-07-22T07:55:36.588Z,45.76
2018-07-22T07:58:03.736Z,43.21
2018-07-22T08:00:30.903Z,40.82
2018-07-22T08:02:58.100Z,43.20
2018-07-22T08:05:25.339Z,43.06
2018-07-22T08:07:52.495Z,43.15
2018-07-22T08:10:19.635Z,43.27
2018-07-22T08:12:46.760Z,42.02
2018-07-22T08:15:13.965Z,44.09
2018-07-22T08:17:41.081Z,43.01
2018-07-22T08:20:08.261Z,43.06
2018-07-22T08:22:35.453Z,41.54
2018-07-22T08:25:02.684Z,43.43
2018-07-22T08:27:29.856Z,43.05
2018-07-22T08:29:57.125Z,42.34
2018-07-22T08:32:24.299Z,37.01
2018-07-22T08:34:51.444Z,37.76
2018-07-22T08:37:18.587Z,35.34
2018-07-22T08:39:45.716Z,35.38
2018-07-22T08:42:12.907Z,36.30
2018-07-22T08:44:40.060Z,37.63
2018-07-22T08:47:07.167Z,37.31
2018-07-22T08:49:34.288Z,38.17
2018-07-22T08:52:01.476Z,39.98
2018-07-22T08:54:28.633Z,35.58
2018-07-22T08:56:55.800Z,34.84
2018-07-22T08:59:23.087Z,40.04
2018-07-22T09:01:50.245Z,36.91
2018-07-22T09:04:17.403Z,37.73
2018-07-22T09:06:44.591Z,34.03
2018-07-22T09:09:12.184Z,38.21
2018-07-22T09:11:39.381Z,34.92
2018-07-22T09:14:07.248Z,36.52
2018-07-22T09:16:34.396Z,36.10
2018-07-22T09:19:01.532Z,35.18
2018-07-22T09:21:28.692Z,33.33
2018-07-22T09:23:55.844Z,35.91
2018-07-22T09:26:22.960Z,33.14
2018-07-22T09:28:50.141Z,30.34
2018-07-22T09:31:17.299Z,33.18
2018-07-22T09:33:44.416Z,35.45
2018-07-22T09:36:11.687Z,35.35
2018-07-22T09:38:38.792Z,34.92
2018-07-22T09:41:06.003Z,35.90
2018-07-22T09:43:33.260Z,35.73
2018-07-22T09:46:00.404Z,34.91
2018-07-22T09:48:27.637Z,36.92
2018-07-22T09:50:54.825Z,35.31
2018-07-22T09:53:21.944Z,35.21
2018-07-22T09:55:49.798Z,30.67
2018-07-22T09:58:17.075Z,31.20
2018-07-22T10:00:49.865Z,31.58
2018-07-22T10:03:17.194Z,36.00
2018-07-22T10:05:44.348Z,34.01
2018-07-22T10:08:11.469Z,34.02
2018-07-22T10:10:38.611Z,33.64
2018-07-22T10:13:06.288Z,31.47
2018-07-22T10:15:33.458Z,34.35
2018-07-22T10:18:00.697Z,30.30
2018-07-22T10:20:27.862Z,34.23
2018-07-22T10:22:54.976Z,32.42
2018-07-22T10:25:22.233Z,31.92
2018-07-22T10:27:49.358Z,32.15
2018-07-22T10:30:16.532Z,31.46
2018-07-22T10:32:43.679Z,31.06
2018-07-22T10:35:10.805Z,32.33
2018-07-22T10:37:38.008Z,30.65
2018-07-22T10:40:05.201Z,30.22
2018-07-22T10:42:32.435Z,31.76
2018-07-22T10:44:59.617Z,30.15
2018-07-22T10:47:26.819Z,33.01
2018-07-22T10:49:53.938Z,33.12
2018-07-22T10:52:21.059Z,29.85
2018-07-22T10:54:48.239Z,30.46
2018-07-22T10:57:15.363Z,28.65
2018-07-22T10:59:42.508Z,45.12
2018-07-22T11:02:09.669Z,40.00
2018-07-22T11:04:36.819Z,40.50
2018-07-22T11:07:03.984Z,26.03
2018-07-22T11:09:31.245Z,27.84
2018-07-22T11:11:58.391Z,26.26
2018-07-22T11:14:25.645Z,23.95
2018-07-22T11:16:52.835Z,25.42
2018-07-22T11:19:20.000Z,27.63
2018-07-22T11:21:47.155Z,29.75
2018-07-22T11:24:14.367Z,30.72
2018-07-22T11:26:41.536Z,26.60
2018-07-22T11:29:08.736Z,29.74
2018-07-22T11:31:35.892Z,26.22
2018-07-22T11:34:03.053Z,27.08
2018-07-22T11:36:30.171Z,28.15
2018-07-22T11:38:57.350Z,31.29
2018-07-22T11:41:24.484Z,30.60
2018-07-22T11:43:51.639Z,30.36
2018-07-22T11:46:18.962Z,29.94
2018-07-22T11:48:46.158Z,29.48
2018-07-22T11:51:13.274Z,30.17
2018-07-22T11:53:41.205Z,38.30
2018-07-22T11:56:08.356Z,34.54
2018-07-22T11:58:35.501Z,35.13
2018-07-22T12:01:02.672Z,33.28
2018-07-22T12:03:29.819Z,27.88
2018-07-22T12:05:56.951Z,28.47
2018-07-22T12:08:24.129Z,29.83
2018-07-22T12:10:51.278Z,34.78
2018-07-22T12:13:18.435Z,30.26
2018-07-22T12:15:45.647Z,31.26
2018-07-22T12:18:12.796Z,29.04
2018-07-22T12:20:39.963Z,32.98
2018-07-22T12:23:07.225Z,33.60
2018-07-22T12:25:34.899Z,30.25
2018-07-22T12:28:02.117Z,32.29
2018-07-22T12:30:29.294Z,33.32
2018-07-22T12:32:56.408Z,32.55
2018-07-22T12:35:23.544Z,31.87
2018-07-22T12:37:50.688Z,30.72
2018-07-22T12:40:17.826Z,33.20
2018-07-22T12:42:44.967Z,35.81
2018-07-22T12:45:12.510Z,31.57
2018-07-22T12:47:39.671Z,35.22
2018-07-22T12:50:06.804Z,34.44
2018-07-22T12:52:33.967Z,32.10
2018-07-22T12:55:01.109Z,33.82
2018-07-22T12:57:28.240Z,34.15
2018-07-22T12:59:55.417Z,32.53
2018-07-22T13:02:22.519Z,32.64
2018-07-22T13:04:49.659Z,32.62
2018-07-22T13:07:16.848Z,32.87
2018-07-22T13:09:43.984Z,33.46
2018-07-22T13:12:11.108Z,31.79
2018-07-22T13:14:38.309Z,32.77
2018-07-22T13:17:05.445Z,33.90
2018-07-22T13:19:32.589Z,32.67
2018-07-22T13:21:59.739Z,32.06
2018-07-22T13:24:26.880Z,34.98
2018-07-22T13:26:53.990Z,33.58
2018-07-22T13:29:21.181Z,32.54
2018-07-22T13:31:48.311Z,33.81
2018-07-22T13:34:15.442Z,34.11
2018-07-22T13:36:42.608Z,33.51
2018-07-22T13:39:11.069Z,35.54
2018-07-22T13:41:38.608Z,33.47
2018-07-22T13:44:05.872Z,34.13
2018-07-22T13:46:33.540Z,33.08
2018-07-22T13:49:00.765Z,31.41
2018-07-22T13:51:28.051Z,32.63
2018-07-22T13:53:55.165Z,32.96
2018-07-22T13:56:22.304Z,31.39
2018-07-22T13:58:49.508Z,32.02
2018-07-22T14:01:16.661Z,31.60
2018-07-22T14:03:43.805Z,31.83
2018-07-22T14:06:11.057Z,32.69
2018-07-22T14:08:38.187Z,34.48
2018-07-22T14:11:05.324Z,30.23
2018-07-22T14:13:32.553Z,30.30
2018-07-22T14:15:59.680Z,32.55
2018-07-22T14:18:26.832Z,30.56
2018-07-22T14:20:54.113Z,29.92
2018-07-22T14:23:21.234Z,33.70
2018-07-22T14:25:48.364Z,37.19
2018-07-22T14:28:15.544Z,34.39
2018-07-22T14:30:42.653Z,30.46
2018-07-22T14:33:09.792Z,31.84
2018-07-22T14:35:36.966Z,34.02
2018-07-22T14:38:04.166Z,32.72
2018-07-22T14:40:31.287Z,34.18
2018-07-22T14:42:58.461Z,32.36
2018-07-22T14:45:25.591Z,32.79
2018-07-22T14:47:52.769Z,37.25
2018-07-22T14:50:20.064Z,32.61
2018-07-22T14:52:47.199Z,33.04
2018-07-22T14:55:14.329Z,31.55
2018-07-22T14:57:41.536Z,31.12
2018-07-22T15:00:08.668Z,29.86
2018-07-22T15:02:35.810Z,28.84
2018-07-22T15:05:03.085Z,29.16
2018-07-22T15:07:30.213Z,29.96
2018-07-22T15:09:57.388Z,31.15
2018-07-22T15:12:24.607Z,29.27
2018-07-22T15:14:51.748Z,31.03
2018-07-22T15:17:18.911Z,30.08
2018-07-22T15:19:46.076Z,32.21
2018-07-22T15:22:13.228Z,32.00
2018-07-22T15:24:40.368Z,33.10
2018-07-22T15:27:08.515Z,34.11
2018-07-22T15:29:36.159Z,36.58
2018-07-22T15:32:03.471Z,43.34
2018-07-22T15:34:30.610Z,37.09
2018-07-22T15:36:57.735Z,39.03
2018-07-22T15:39:24.852Z,40.88
2018-07-22T15:41:52.080Z,36.20
2018-07-22T15:44:19.207Z,37.69
2018-07-22T15:46:46.340Z,39.47
2018-07-22T15:49:13.487Z,39.14
2018-07-22T15:51:41.459Z,37.09
2018-07-22T15:54:08.569Z,37.69
2018-07-22T15:56:35.735Z,39.54
2018-07-22T15:59:02.885Z,35.86
2018-07-22T16:01:30.163Z,36.45
2018-07-22T16:03:57.292Z,38.62
2018-07-22T16:06:24.404Z,37.18
2018-07-22T16:08:51.653Z,38.86
2018-07-22T16:11:18.829Z,37.79
2018-07-22T16:13:45.964Z,40.33
2018-07-22T16:16:13.059Z,37.56
2018-07-22T16:18:40.271Z,36.74
2018-07-22T16:21:07.368Z,36.91
2018-07-22T16:23:34.504Z,39.08
2018-07-22T16:26:01.668Z,36.56
2018-07-22T16:28:28.781Z,36.74
2018-07-22T16:30:55.892Z,36.45
2018-07-22T16:33:23.069Z,36.42
2018-07-22T16:35:50.200Z,38.32
2018-07-22T16:38:17.345Z,40.51
2018-07-22T16:40:44.601Z,45.01
2018-07-22T16:43:11.729Z,50.60
2018-07-22T16:45:38.864Z,51.26
2018-07-22T16:48:06.073Z,50.17
2018-07-22T16:50:33.245Z,50.02
2018-07-22T16:53:00.548Z,50.93
2018-07-22T16:55:27.808Z,50.72
2018-07-22T16:57:54.920Z,50.19
2018-07-22T17:00:22.055Z,50.02
2018-07-22T17:02:49.236Z,45.19
2018-07-22T17:05:16.351Z,44.90
2018-07-22T17:07:43.474Z,50.65
2018-07-22T17:10:10.663Z,53.15
2018-07-22T17:12:37.789Z,54.93
2018-07-22T17:15:04.944Z,55.64
2018-07-22T17:17:32.130Z,54.91
2018-07-22T17:19:59.260Z,55.99
2018-07-22T17:22:26.383Z,57.21
2018-07-22T17:24:53.636Z,57.00
2018-07-22T17:27:20.783Z,58.75
2018-07-22T17:29:47.915Z,59.15
2018-07-22T17:32:15.093Z,61.09
2018-07-22T17:34:42.284Z,60.34
2018-07-22T17:37:09.408Z,61.51
2018-07-22T17:39:36.665Z,62.04
2018-07-22T17:42:03.799Z,61.18
2018-07-22T17:44:30.957Z,61.19
2018-07-22T17:46:58.108Z,63.21
2018-07-22T17:49:25.252Z,63.49
2018-07-22T17:51:52.403Z,62.30
2018-07-22T17:54:19.627Z,61.70
2018-07-22T17:56:46.748Z,58.41
2018-07-22T17:59:13.895Z,57.21
2018-07-22T18:01:41.089Z,58.52
2018-07-22T18:04:08.236Z,59.88
2018-07-22T18:06:35.434Z,62.46
2018-07-22T18:09:02.725Z,63.62
2018-07-22T18:11:29.835Z,64.17
2018-07-22T18:13:56.954Z,65.81
2018-07-22T18:16:24.158Z,66.90
2018-07-22T18:18:51.314Z,66.17
2018-07-22T18:21:18.459Z,66.40
2018-07-22T18:23:45.712Z,67.07
2018-07-22T18:26:12.836Z,66.55
2018-07-22T18:28:39.952Z,66.66
2018-07-22T18:31:07.131Z,68.06
2018-07-22T18:33:34.256Z,68.62
2018-07-22T18:36:01.390Z,69.42
2018-07-22T18:38:28.568Z,68.96
2018-07-22T18:40:55.701Z,69.39
2018-07-22T18:43:22.855Z,70.73
2018-07-22T18:45:50.048Z,70.89
2018-07-22T18:48:17.201Z,69.03
2018-07-22T18:50:44.341Z,66.73
2018-07-22T18:53:11.583Z,68.18
2018-07-22T18:55:38.739Z,69.87
2018-07-22T18:58:05.901Z,70.43
2018-07-22T19:00:33.095Z,71.29
2018-07-22T19:03:00.228Z,71.92
2018-07-22T19:05:27.400Z,73.28
2018-07-22T19:07:54.687Z,74.15
2018-07-22T19:10:21.816Z,74.36
2018-07-22T19:12:48.989Z,68.63
2018-07-22T19:15:16.178Z,69.65
2018-07-22T19:17:43.343Z,69.77
2018-07-22T19:20:10.508Z,72.73
2018-07-22T19:22:37.765Z,74.60
2018-07-22T19:25:04.905Z,74.84
2018-07-22T19:27:32.091Z,75.91
2018-07-22T19:29:59.280Z,77.20
2018-07-22T19:32:26.388Z,78.17
2018-07-22T19:34:53.509Z,77.06
2018-07-22T19:37:20.660Z,76.96
2018-07-22T19:39:47.790Z,75.46
2018-07-22T19:42:14.908Z,75.94
2018-07-22T19:44:42.141Z,76.78
2018-07-22T19:47:09.257Z,77.55
2018-07-22T19:49:36.384Z,77.31
2018-07-22T19:52:03.633Z,76.39
2018-07-22T19:54:31.760Z,75.73
2018-07-22T19:56:58.961Z,73.83
2018-07-22T19:59:26.128Z,74.46
2018-07-22T20:01:53.252Z,74.09
2018-07-22T20:04:20.374Z,75.72
2018-07-22T20:06:47.577Z,73.58
2018-07-22T20:09:14.669Z,71.48
2018-07-22T20:11:42.422Z,70.56
2018-07-22T20:14:09.650Z,69.27
2018-07-22T20:16:36.800Z,68.85
2018-07-22T20:19:03.974Z,68.85
2018-07-22T20:21:31.658Z,66.56
2018-07-22T20:23:58.828Z,67.11
2018-07-22T20:26:25.980Z,67.02
2018-07-22T20:28:53.287Z,67.10
2018-07-22T20:31:20.413Z,66.93
2018-07-22T20:33:47.685Z,66.69
2018-07-22T20:36:15.123Z,66.75
2018-07-22T20:38:42.272Z,66.68
2018-07-22T20:41:09.458Z,66.34
2018-07-22T20:43:36.691Z,66.93
2018-07-22T20:46:03.911Z,67.83
2018-07-22T20:48:31.098Z,67.58
2018-07-22T20:50:58.688Z,67.44
2018-07-22T20:53:25.808Z,67.74
2018-07-22T20:55:52.981Z,68.38
2018-07-22T20:58:20.263Z,68.49
2018-07-22T21:00:47.532Z,69.08
2018-07-22T21:03:14.675Z,69.96
2018-07-22T21:05:41.880Z,68.90
2018-07-22T21:08:09.106Z,69.58
2018-07-22T21:10:36.163Z,69.41
2018-07-22T21:13:15.844Z,69.63
2018-07-22T21:15:42.963Z,68.88
2018-07-22T21:18:10.091Z,70.03
2018-07-22T21:20:37.307Z,70.17
2018-07-22T21:23:04.657Z,70.00
2018-07-22T21:25:31.783Z,70.77
2018-07-22T21:27:59.059Z,70.45
2018-07-22T21:30:26.204Z,70.91
2018-07-22T21:32:53.337Z,71.98
2018-07-22T21:35:20.519Z,74.69
2018-07-22T21:37:47.651Z,76.32
2018-07-22T21:40:14.826Z,76.13
2018-07-22T21:42:42.005Z,77.07
2018-07-22T21:45:09.119Z,78.23
2018-07-22T21:47:36.341Z,78.82
2018-07-22T21:50:04.164Z,78.47
2018-07-22T21:52:31.285Z,80.20
2018-07-22T21:54:58.395Z,80.88
2018-07-22T21:57:25.547Z,81.65
2018-07-22T21:59:52.780Z,81.91
2018-07-22T22:02:19.948Z,80.60
2018-07-22T22:04:47.220Z,82.33
2018-07-22T22:07:14.368Z,80.69
2018-07-22T22:09:41.544Z,82.92
2018-07-22T22:12:08.756Z,81.37
2018-07-22T22:14:35.941Z,81.10
2018-07-22T22:17:03.111Z,82.78
2018-07-22T22:19:30.415Z,82.92
2018-07-22T22:21:57.534Z,83.62
2018-07-22T22:24:24.660Z,81.74
2018-07-22T22:26:51.830Z,81.98
2018-07-22T22:29:18.958Z,83.05
2018-07-22T22:31:46.080Z,82.97
2018-07-22T22:34:13.252Z,82.85
2018-07-22T22:36:40.363Z,83.88
2018-07-22T22:39:08.848Z,84.07
2018-07-22T22:41:36.019Z,84.62
2018-07-22T22:44:03.163Z,85.74
2018-07-22T22:46:30.293Z,85.46
2018-07-22T22:48:57.483Z,82.61
2018-07-22T22:51:24.740Z,83.03
2018-07-22T22:53:51.949Z,82.69
2018-07-22T22:56:19.111Z,83.48
2018-07-22T22:58:57.789Z,84.25
2018-07-22T23:01:25.043Z,83.19
2018-07-22T23:03:52.181Z,82.38
2018-07-22T23:06:19.295Z,82.99
2018-07-22T23:08:46.443Z,84.55
2018-07-22T23:11:13.560Z,84.54
2018-07-22T23:13:40.687Z,83.80
2018-07-22T23:16:07.880Z,83.16
2018-07-22T23:18:34.992Z,82.46
2018-07-22T23:21:02.110Z,83.17
2018-07-22T23:23:29.248Z,85.00
2018-07-22T23:25:56.384Z,84.40
2018-07-22T23:28:23.505Z,84.33
2018-07-22T23:30:50.701Z,84.37
2018-07-22T23:33:17.904Z,85.99
2018-07-22T23:35:45.069Z,85.09
2018-07-22T23:38:12.223Z,87.01
2018-07-22T23:40:39.365Z,87.46
2018-07-22T23:43:06.480Z,87.16
2018-07-22T23:45:33.627Z,86.13
2018-07-22T23:48:00.824Z,85.59
2018-07-22T23:50:27.945Z,86.61
2018-07-22T23:52:55.213Z,87.70
2018-07-22T23:55:22.331Z,87.38
2018-07-22T23:57:49.476Z,86.63
